Terminal Aerodrome Forecast
Issued by NWS

Home | Current Version | Previous Version | Graphics & Text | Print | Product List | Glossary On
Versions: 1 2 3 4 5 6 7 8 9 10 11 12 13 14 15 16 17 18 19 20 21 22 23 24 25 26 27
000
FTUS43 KLOT 140524
TAFORD
TAF
KORD 140524Z 1406/1512 27003KT P6SM FEW250
     FM141600 19008KT P6SM BKN200
     FM142000 18010KT P6SM BKN050 BKN150
     FM150000 17011KT 5SM -SN SCT030 OVC050
     FM150130 17012KT 1 1/2SM -SN BKN018 OVC025
     FM150600 17010KT 1 1/2SM -SN SCT007 OVC015=

USA.gov is the U.S. government's official web portal to all federal, state and local government web resources and services.